Time;durP1;ratioP1;P1;durP2;ratioP2;P2;SDS_P1;SDS_P2;PMS_P1;PMS_P2;Temp;Humidity;BMP_temperature;BMP_pressure;BME280_temperature;BME280_humidity;BME280_pressure;Samples;Min_cycle;Max_cycle;Signal;HPM_P1;HPM_P2
2022/11/21 00:00:38;;;;;;;20.30;14.70;;;;;;;;;;5115470;28;20034;-73
2022/11/21 00:03:24;;;;;;;23.38;16.38;;;;;;;;;;5114123;28;20032;-73
2022/11/21 00:06:09;;;;;;;22.73;16.17;;;;;;;;;;5114309;28;20020;-72
2022/11/21 00:08:55;;;;;;;22.88;16.30;;;;;;;;;;5093235;28;20015;-73
2022/11/21 00:11:41;;;;;;;22.38;15.75;;;;;;;;;;5115289;28;20102;-73
2022/11/21 00:14:26;;;;;;;23.00;15.98;;;;;;;;;;5114978;28;20016;-73
2022/11/21 00:17:12;;;;;;;20.20;15.27;;;;;;;;;;5114934;28;20448;-72
2022/11/21 00:19:57;;;;;;;25.50;16.30;;;;;;;;;;5114584;28;20076;-73
2022/11/21 00:22:43;;;;;;;21.08;15.32;;;;;;;;;;5114818;28;20016;-73
2022/11/21 00:25:29;;;;;;;24.13;16.83;;;;;;;;;;5114703;28;20034;-73
2022/11/21 00:28:14;;;;;;;27.13;17.83;;;;;;;;;;5114701;28;20011;-73
2022/11/21 00:31:00;;;;;;;25.40;17.23;;;;;;;;;;5115014;28;20094;-73
2022/11/21 00:33:45;;;;;;;27.92;19.08;;;;;;;;;;5115678;28;20103;-73
2022/11/21 00:36:31;;;;;;;29.70;19.13;;;;;;;;;;5114972;28;20174;-73
2022/11/21 00:39:16;;;;;;;29.63;19.67;;;;;;;;;;5115106;28;20035;-73
2022/11/21 00:42:02;;;;;;;30.30;20.95;;;;;;;;;;5114825;28;20095;-73
2022/11/21 00:44:48;;;;;;;33.85;22.38;;;;;;;;;;5115173;28;20055;-73
2022/11/21 00:47:33;;;;;;;32.58;20.73;;;;;;;;;;5115304;28;20080;-72
2022/11/21 00:50:19;;;;;;;30.05;19.52;;;;;;;;;;5114808;28;20073;-73
2022/11/21 00:53:04;;;;;;;35.83;20.80;;;;;;;;;;5116146;28;20020;-72
2022/11/21 00:55:50;;;;;;;38.40;20.88;;;;;;;;;;5115587;28;20019;-73
2022/11/21 00:58:36;;;;;;;38.05;22.77;;;;;;;;;;5100856;28;20076;-73
2022/11/21 01:01:21;;;;;;;37.25;21.65;;;;;;;;;;5120784;28;20062;-74
2022/11/21 01:04:07;;;;;;;38.17;22.33;;;;;;;;;;5114891;28;20337;-73
2022/11/21 01:06:52;;;;;;;35.25;22.75;;;;;;;;;;5114052;28;20055;-73
2022/11/21 01:09:38;;;;;;;36.20;22.13;;;;;;;;;;5115129;28;20136;-73
2022/11/21 01:12:24;;;;;;;37.17;21.60;;;;;;;;;;5114501;28;20039;-73
2022/11/21 01:15:09;;;;;;;38.92;22.05;;;;;;;;;;5115589;28;20058;-73
2022/11/21 01:17:55;;;;;;;30.95;20.30;;;;;;;;;;5114953;28;20420;-72
2022/11/21 01:20:40;;;;;;;29.77;18.58;;;;;;;;;;5114985;28;20027;-73
2022/11/21 01:23:26;;;;;;;27.50;18.35;;;;;;;;;;5119825;28;20027;-72
2022/11/21 01:26:16;;;;;;;29.48;19.17;;;;;;;;;;5116354;28;20031;-73
2022/11/21 01:29:02;;;;;;;26.63;18.23;;;;;;;;;;5115280;28;20026;-73
2022/11/21 01:31:48;;;;;;;26.17;17.65;;;;;;;;;;5100703;28;20102;-73
2022/11/21 01:34:34;;;;;;;26.90;18.50;;;;;;;;;;5114723;28;20024;-73
2022/11/21 01:37:19;;;;;;;24.95;16.92;;;;;;;;;;5114495;28;20044;-72
2022/11/21 01:40:05;;;;;;;25.55;17.73;;;;;;;;;;5114389;28;20011;-73
2022/11/21 01:42:54;;;;;;;25.33;18.13;;;;;;;;;;5114310;28;20110;-72
2022/11/21 01:46:06;;;;;;;24.58;16.55;;;;;;;;;;5114403;28;20016;-73
2022/11/21 01:49:11;;;;;;;24.48;17.58;;;;;;;;;;5114228;28;20019;-73
2022/11/21 01:52:05;;;;;;;26.98;18.23;;;;;;;;;;5115299;28;20047;-73
2022/11/21 01:54:54;;;;;;;24.75;17.38;;;;;;;;;;5118659;28;20031;-73
2022/11/21 01:57:39;;;;;;;25.85;17.73;;;;;;;;;;5118082;28;20425;-73
2022/11/21 02:00:26;;;;;;;22.33;16.10;;;;;;;;;;5103608;28;20435;-73
2022/11/21 02:03:14;;;;;;;21.17;14.75;;;;;;;;;;5118603;28;20023;-73
2022/11/21 02:06:00;;;;;;;19.45;14.00;;;;;;;;;;5103963;28;20031;-73
2022/11/21 02:08:45;;;;;;;19.85;14.38;;;;;;;;;;5118173;28;20432;-73
2022/11/21 02:11:45;;;;;;;21.60;14.90;;;;;;;;;;5118251;28;20106;-73
2022/11/21 02:14:31;;;;;;;22.45;15.50;;;;;;;;;;5117576;28;20043;-73
2022/11/21 02:17:17;;;;;;;24.15;16.08;;;;;;;;;;5118202;28;20012;-73
2022/11/21 02:20:07;;;;;;;25.88;16.05;;;;;;;;;;5117911;28;20144;-73
2022/11/21 02:22:53;;;;;;;33.20;18.00;;;;;;;;;;5117785;28;20029;-74
2022/11/21 02:25:42;;;;;;;26.05;16.88;;;;;;;;;;5117437;28;20015;-73
2022/11/21 02:28:28;;;;;;;27.40;16.73;;;;;;;;;;5117910;28;20051;-73
2022/11/21 02:31:14;;;;;;;25.85;16.30;;;;;;;;;;5116462;28;20103;-73
2022/11/21 02:33:59;;;;;;;24.33;15.38;;;;;;;;;;5117634;28;20023;-73
2022/11/21 02:36:46;;;;;;;24.58;15.65;;;;;;;;;;5117259;28;20119;-74
2022/11/21 02:39:34;;;;;;;24.45;15.43;;;;;;;;;;5102721;28;20024;-73
2022/11/21 02:42:26;;;;;;;25.35;15.35;;;;;;;;;;5116955;28;20072;-74
2022/11/21 02:45:24;;;;;;;23.05;15.02;;;;;;;;;;5117562;28;20023;-72
2022/11/21 02:48:09;;;;;;;24.17;15.48;;;;;;;;;;5117702;28;20094;-73
2022/11/21 02:50:55;;;;;;;21.77;14.77;;;;;;;;;;5116710;28;20174;-74
2022/11/21 02:53:40;;;;;;;24.30;14.85;;;;;;;;;;5117681;28;20023;-74
2022/11/21 02:56:26;;;;;;;23.63;14.57;;;;;;;;;;5118100;28;20495;-74
2022/11/21 02:59:12;;;;;;;23.65;14.15;;;;;;;;;;5117116;28;20084;-73
2022/11/21 03:01:58;;;;;;;26.27;15.48;;;;;;;;;;5117356;28;20024;-73
2022/11/21 03:04:44;;;;;;;27.77;16.10;;;;;;;;;;5115452;28;20479;-73
2022/11/21 03:07:29;;;;;;;27.45;15.48;;;;;;;;;;5117315;28;20020;-72
2022/11/21 03:10:15;;;;;;;34.03;18.95;;;;;;;;;;5116955;28;20374;-73
2022/11/21 03:13:01;;;;;;;37.95;20.00;;;;;;;;;;5116909;28;20028;-74
2022/11/21 03:15:46;;;;;;;43.42;20.40;;;;;;;;;;5116104;28;20072;-73
2022/11/21 03:18:32;;;;;;;38.10;19.83;;;;;;;;;;5116864;28;20096;-74
2022/11/21 03:21:17;;;;;;;44.42;19.60;;;;;;;;;;5116918;28;20047;-72
2022/11/21 03:24:03;;;;;;;32.30;18.90;;;;;;;;;;5116652;28;20084;-73
2022/11/21 03:26:49;;;;;;;41.00;20.65;;;;;;;;;;5116366;28;20015;-74
2022/11/21 03:29:34;;;;;;;41.80;21.42;;;;;;;;;;5116775;28;20031;-74
2022/11/21 03:32:20;;;;;;;39.28;21.88;;;;;;;;;;5101932;28;20140;-74
2022/11/21 03:35:06;;;;;;;32.80;18.67;;;;;;;;;;5101594;28;20042;-73
2022/11/21 03:37:51;;;;;;;32.88;18.45;;;;;;;;;;5096005;28;20067;-73
2022/11/21 03:40:37;;;;;;;28.98;16.58;;;;;;;;;;5096623;28;20020;-74
2022/11/21 03:43:23;;;;;;;29.45;17.02;;;;;;;;;;5096420;28;20099;-73
2022/11/21 03:46:08;;;;;;;29.73;17.45;;;;;;;;;;5097057;28;20028;-74
2022/11/21 03:48:54;;;;;;;30.75;17.98;;;;;;;;;;5096498;28;20008;-73
2022/11/21 03:51:40;;;;;;;29.90;19.02;;;;;;;;;;5096966;28;20020;-73
2022/11/21 03:54:25;;;;;;;30.23;18.20;;;;;;;;;;5096139;28;20023;-73
2022/11/21 03:57:11;;;;;;;27.95;17.95;;;;;;;;;;5096101;28;20352;-73
2022/11/21 03:59:56;;;;;;;30.27;18.83;;;;;;;;;;5096042;28;20405;-73
2022/11/21 04:02:42;;;;;;;28.15;16.25;;;;;;;;;;5095968;28;20101;-73
2022/11/21 04:05:27;;;;;;;22.58;14.18;;;;;;;;;;5096133;28;20073;-73
2022/11/21 04:08:13;;;;;;;23.98;13.20;;;;;;;;;;5096034;28;20027;-73
2022/11/21 04:10:59;;;;;;;21.70;11.48;;;;;;;;;;5095915;28;20020;-72
2022/11/21 04:13:44;;;;;;;21.05;12.20;;;;;;;;;;5095755;28;20131;-73
2022/11/21 04:16:30;;;;;;;18.98;11.88;;;;;;;;;;5095832;28;20016;-73
2022/11/21 04:19:15;;;;;;;17.30;11.95;;;;;;;;;;5095740;28;20348;-73
2022/11/21 04:22:01;;;;;;;16.80;9.98;;;;;;;;;;5096510;28;20036;-73
2022/11/21 04:24:46;;;;;;;18.92;10.98;;;;;;;;;;5095571;28;20016;-73
2022/11/21 04:27:32;;;;;;;16.30;10.32;;;;;;;;;;5095700;28;20020;-73
2022/11/21 04:30:18;;;;;;;22.13;11.60;;;;;;;;;;5095637;28;20149;-72
2022/11/21 04:33:03;;;;;;;17.38;11.70;;;;;;;;;;5095714;28;20031;-73
2022/11/21 04:35:49;;;;;;;18.02;11.13;;;;;;;;;;5096573;27;20012;-73
2022/11/21 04:38:35;;;;;;;24.08;11.77;;;;;;;;;;5115078;28;20035;-73
2022/11/21 04:41:20;;;;;;;24.77;13.13;;;;;;;;;;5115259;28;20023;-72
2022/11/21 04:44:06;;;;;;;21.30;12.57;;;;;;;;;;5115416;28;20024;-73
2022/11/21 04:46:52;;;;;;;19.35;12.10;;;;;;;;;;5114125;28;20023;-72
2022/11/21 04:49:37;;;;;;;21.05;13.27;;;;;;;;;;5099790;28;20447;-72
2022/11/21 04:52:23;;;;;;;24.27;14.35;;;;;;;;;;5115349;28;20088;-73
2022/11/21 04:55:09;;;;;;;27.50;15.00;;;;;;;;;;5113172;28;20007;-74
2022/11/21 04:57:54;;;;;;;20.33;12.10;;;;;;;;;;5115827;28;20020;-73
2022/11/21 05:00:40;;;;;;;19.00;12.27;;;;;;;;;;5114779;28;20398;-73
2022/11/21 05:03:25;;;;;;;24.40;14.73;;;;;;;;;;5115028;28;20027;-72
2022/11/21 05:06:11;;;;;;;19.30;12.80;;;;;;;;;;5114635;28;20023;-72
2022/11/21 05:08:56;;;;;;;20.13;12.88;;;;;;;;;;5115377;28;20015;-71
2022/11/21 05:14:46;;;;;;;18.42;10.65;;;;;;;;;;5115067;28;20023;-71
2022/11/21 05:17:32;;;;;;;19.33;12.00;;;;;;;;;;5114188;28;20459;-71
2022/11/21 05:20:18;;;;;;;19.00;12.00;;;;;;;;;;5099247;28;20039;-71
2022/11/21 05:23:03;;;;;;;19.75;13.32;;;;;;;;;;5115283;28;20031;-72
2022/11/21 05:25:49;;;;;;;20.83;12.75;;;;;;;;;;5113631;28;20070;-73
2022/11/21 05:28:35;;;;;;;19.42;12.30;;;;;;;;;;5104355;28;20020;-73
2022/11/21 05:31:20;;;;;;;17.50;11.30;;;;;;;;;;5104160;28;20031;-72
2022/11/21 05:34:06;;;;;;;22.70;13.27;;;;;;;;;;5118832;28;20012;-73
2022/11/21 05:36:55;;;;;;;19.55;11.27;;;;;;;;;;5118762;28;20490;-73
2022/11/21 05:39:41;;;;;;;21.23;10.75;;;;;;;;;;5118005;28;20053;-73
2022/11/21 05:45:31;;;;;;;17.13;11.00;;;;;;;;;;5118541;28;20516;-74
2022/11/21 05:48:17;;;;;;;19.90;11.60;;;;;;;;;;5119328;28;20016;-74
2022/11/21 05:51:03;;;;;;;22.02;12.35;;;;;;;;;;5120403;28;20313;-73
2022/11/21 05:53:48;;;;;;;25.45;13.45;;;;;;;;;;5119785;28;20020;-73
2022/11/21 05:56:34;;;;;;;23.88;14.55;;;;;;;;;;5119499;28;20358;-74
2022/11/21 05:59:19;;;;;;;23.83;13.77;;;;;;;;;;5103618;28;20034;-73
2022/11/21 06:05:09;;;;;;;25.60;15.52;;;;;;;;;;5118081;28;20106;-74
2022/11/21 06:07:55;;;;;;;24.65;14.70;;;;;;;;;;5118547;28;20100;-73
2022/11/21 06:10:40;;;;;;;26.70;15.88;;;;;;;;;;5104360;28;20459;-73
2022/11/21 06:13:26;;;;;;;26.15;14.60;;;;;;;;;;5118213;28;20016;-74
2022/11/21 06:16:13;;;;;;;22.40;13.43;;;;;;;;;;5117928;28;20066;-71
2022/11/21 06:18:58;;;;;;;26.85;14.73;;;;;;;;;;5118178;28;20028;-72
2022/11/21 06:21:44;;;;;;;21.20;14.23;;;;;;;;;;5109749;28;20160;-73
2022/11/21 06:24:29;;;;;;;22.98;13.38;;;;;;;;;;5119071;28;20034;-72
2022/11/21 06:27:15;;;;;;;20.08;12.65;;;;;;;;;;5118523;28;20081;-73
2022/11/21 06:30:01;;;;;;;21.42;13.18;;;;;;;;;;5118071;28;20051;-73
2022/11/21 06:32:47;;;;;;;23.02;13.75;;;;;;;;;;5117771;28;20047;-73
2022/11/21 06:35:36;;;;;;;22.83;13.88;;;;;;;;;;5117777;28;20011;-73
2022/11/21 06:38:21;;;;;;;25.05;15.27;;;;;;;;;;5116302;28;20380;-73
2022/11/21 06:41:11;;;;;;;27.45;15.73;;;;;;;;;;5117557;28;20030;-73
2022/11/21 06:44:00;;;;;;;27.60;16.08;;;;;;;;;;5117389;28;20034;-73
2022/11/21 06:46:46;;;;;;;29.30;15.73;;;;;;;;;;5102078;28;20020;-73
2022/11/21 06:49:31;;;;;;;25.55;15.20;;;;;;;;;;5117235;28;20018;-71
2022/11/21 06:52:17;;;;;;;23.15;14.60;;;;;;;;;;5116872;28;20016;-73
2022/11/21 06:55:02;;;;;;;22.55;13.95;;;;;;;;;;5117796;28;20321;-72
2022/11/21 06:57:48;;;;;;;19.40;13.20;;;;;;;;;;5117026;28;20023;-72
2022/11/21 07:00:34;;;;;;;26.48;16.45;;;;;;;;;;5117074;28;20095;-72
2022/11/21 07:03:21;;;;;;;23.15;14.98;;;;;;;;;;5102267;28;20148;-71
2022/11/21 07:06:06;;;;;;;24.77;14.73;;;;;;;;;;5116748;28;20034;-71
2022/11/21 07:08:53;;;;;;;22.55;13.60;;;;;;;;;;5116888;28;20026;-71
2022/11/21 07:11:38;;;;;;;22.02;13.77;;;;;;;;;;5116704;28;20027;-73
2022/11/21 07:14:24;;;;;;;20.05;13.52;;;;;;;;;;5117579;28;20016;-70
2022/11/21 07:17:10;;;;;;;18.77;12.65;;;;;;;;;;5117424;28;20175;-71
2022/11/21 07:19:56;;;;;;;21.30;13.80;;;;;;;;;;5104376;28;20028;-71
2022/11/21 07:22:41;;;;;;;23.38;15.00;;;;;;;;;;5097516;28;20023;-72
2022/11/21 07:25:27;;;;;;;22.58;14.60;;;;;;;;;;5105755;28;20176;-67
2022/11/21 07:28:13;;;;;;;26.10;16.52;;;;;;;;;;5106604;28;20402;-66
2022/11/21 07:30:59;;;;;;;27.10;15.30;;;;;;;;;;5104172;28;20439;-68
2022/11/21 07:33:46;;;;;;;21.73;15.00;;;;;;;;;;5103707;28;20367;-68
2022/11/21 07:36:31;;;;;;;26.80;14.48;;;;;;;;;;5102895;28;20074;-67
2022/11/21 07:39:18;;;;;;;23.52;14.80;;;;;;;;;;5108260;28;20019;-68
2022/11/21 07:42:03;;;;;;;21.55;13.98;;;;;;;;;;5108986;28;20431;-68
2022/11/21 07:44:49;;;;;;;26.38;16.83;;;;;;;;;;5105639;28;20027;-68
2022/11/21 07:47:34;;;;;;;32.00;18.40;;;;;;;;;;5108792;28;20080;-68
2022/11/21 07:50:20;;;;;;;32.38;19.27;;;;;;;;;;5108048;28;20126;-67
2022/11/21 07:53:07;;;;;;;34.85;20.85;;;;;;;;;;5106196;28;20016;-68
2022/11/21 07:55:52;;;;;;;42.53;20.63;;;;;;;;;;5108599;28;20027;-68
2022/11/21 07:58:39;;;;;;;36.40;19.98;;;;;;;;;;5108121;28;20138;-68
2022/11/21 08:01:25;;;;;;;47.08;25.45;;;;;;;;;;5094340;28;20427;-68
2022/11/21 08:04:10;;;;;;;39.42;22.65;;;;;;;;;;5092286;28;20028;-67
2022/11/21 08:06:56;;;;;;;38.28;21.50;;;;;;;;;;5108393;28;20450;-68
2022/11/21 08:09:42;;;;;;;40.38;22.05;;;;;;;;;;5107805;28;20026;-68
2022/11/21 08:12:28;;;;;;;54.97;30.35;;;;;;;;;;5092372;28;20367;-68
2022/11/21 08:15:13;;;;;;;34.22;19.45;;;;;;;;;;5105693;28;20059;-68
2022/11/21 08:18:05;;;;;;;25.50;16.08;;;;;;;;;;5108474;28;20057;-68
2022/11/21 08:20:51;;;;;;;24.15;14.65;;;;;;;;;;5093912;28;20028;-69
2022/11/21 08:23:37;;;;;;;22.20;15.10;;;;;;;;;;5105277;28;20020;-69
2022/11/21 08:26:22;;;;;;;21.67;14.82;;;;;;;;;;5093256;28;20019;-68
2022/11/21 08:29:08;;;;;;;26.27;15.68;;;;;;;;;;5107121;28;20024;-69
2022/11/21 08:31:54;;;;;;;22.80;14.73;;;;;;;;;;5107933;28;20019;-68
2022/11/21 08:34:39;;;;;;;26.73;15.00;;;;;;;;;;5104319;28;20023;-68
2022/11/21 08:37:28;;;;;;;26.33;14.95;;;;;;;;;;5092765;28;21542;-67
2022/11/21 08:40:14;;;;;;;23.60;14.88;;;;;;;;;;5092235;28;20842;-68
2022/11/21 08:42:59;;;;;;;23.00;14.50;;;;;;;;;;5090921;28;20333;-68
2022/11/21 08:45:45;;;;;;;24.50;15.70;;;;;;;;;;5106881;28;20408;-67
2022/11/21 08:48:31;;;;;;;26.00;17.27;;;;;;;;;;5107619;28;20015;-68
2022/11/21 08:51:16;;;;;;;32.00;18.50;;;;;;;;;;5106144;28;20024;-67
2022/11/21 08:54:02;;;;;;;32.88;20.80;;;;;;;;;;5105497;28;20011;-68
2022/11/21 08:56:48;;;;;;;29.27;17.13;;;;;;;;;;5105029;28;20151;-68
2022/11/21 08:59:34;;;;;;;27.73;16.80;;;;;;;;;;5107676;28;20038;-68
2022/11/21 09:02:19;;;;;;;24.88;16.88;;;;;;;;;;5107067;28;20110;-68
2022/11/21 09:05:05;;;;;;;26.83;17.73;;;;;;;;;;5104268;28;20077;-68
2022/11/21 09:07:57;;;;;;;26.58;16.20;;;;;;;;;;5106619;28;20038;-68
2022/11/21 09:10:43;;;;;;;27.20;17.10;;;;;;;;;;5107646;28;20012;-69
2022/11/21 09:13:28;;;;;;;29.27;18.35;;;;;;;;;;5105422;28;20105;-67
2022/11/21 09:19:19;;;;;;;33.63;18.55;;;;;;;;;;5107258;27;20036;-68
2022/11/21 09:22:05;;;;;;;28.17;17.92;;;;;;;;;;5107319;28;20031;-68
2022/11/21 09:24:51;;;;;;;27.85;17.52;;;;;;;;;;5104078;28;20035;-68
2022/11/21 09:27:36;;;;;;;29.40;17.77;;;;;;;;;;5099015;28;20023;-68
2022/11/21 09:30:22;;;;;;;30.15;16.80;;;;;;;;;;5107549;28;20024;-68
2022/11/21 09:33:11;;;;;;;42.65;23.58;;;;;;;;;;5102122;28;20015;-69
2022/11/21 09:35:58;;;;;;;37.13;22.00;;;;;;;;;;5101299;28;20035;-69
2022/11/21 09:38:43;;;;;;;34.88;20.30;;;;;;;;;;5103616;28;20423;-69
2022/11/21 09:41:53;;;;;;;33.67;19.67;;;;;;;;;;5092658;28;20035;-69
2022/11/21 09:44:39;;;;;;;29.67;17.92;;;;;;;;;;5086320;28;20031;-69
2022/11/21 09:47:25;;;;;;;30.40;18.38;;;;;;;;;;5106563;28;20414;-70
2022/11/21 09:50:13;;;;;;;34.53;19.38;;;;;;;;;;5106338;28;20390;-68
2022/11/21 09:53:08;;;;;;;35.67;20.42;;;;;;;;;;5105701;28;20024;-68
2022/11/21 09:55:58;;;;;;;31.85;19.60;;;;;;;;;;5090610;28;20056;-68
2022/11/21 09:58:50;;;;;;;36.47;19.90;;;;;;;;;;5106440;28;20080;-68
2022/11/21 10:01:36;;;;;;;37.08;21.17;;;;;;;;;;5105725;28;20028;-68
2022/11/21 10:04:21;;;;;;;41.78;22.23;;;;;;;;;;5105315;28;20112;-70
2022/11/21 10:07:12;;;;;;;38.85;23.42;;;;;;;;;;5105394;28;20039;-68
2022/11/21 10:10:33;;;;;;;40.55;23.38;;;;;;;;;;5101850;28;20104;-68
2022/11/21 10:13:19;;;;;;;44.22;25.58;;;;;;;;;;5002688;28;20891;-67
2022/11/21 10:16:04;;;;;;;42.65;24.90;;;;;;;;;;5109354;28;20031;-71
2022/11/21 10:19:06;;;;;;;41.72;23.50;;;;;;;;;;5109929;28;20023;-70
2022/11/21 10:21:52;;;;;;;44.55;25.67;;;;;;;;;;5109630;28;20020;-69
2022/11/21 10:24:39;;;;;;;44.60;24.88;;;;;;;;;;5107812;28;20106;-69
2022/11/21 10:27:25;;;;;;;27.45;17.85;;;;;;;;;;5110314;28;20028;-71
2022/11/21 10:30:15;;;;;;;18.27;12.20;;;;;;;;;;5110100;28;20072;-69
2022/11/21 10:33:03;;;;;;;10.93;8.10;;;;;;;;;;5102676;28;20012;-75
2022/11/21 10:35:54;;;;;;;9.10;7.85;;;;;;;;;;5108197;28;20027;-75
2022/11/21 10:38:42;;;;;;;9.13;7.72;;;;;;;;;;5109177;28;20030;-74
2022/11/21 10:41:30;;;;;;;10.27;7.57;;;;;;;;;;5111067;28;20023;-76
2022/11/21 10:47:27;;;;;;;9.27;7.32;;;;;;;;;;5109954;28;20096;-79
2022/11/21 10:50:19;;;;;;;6.70;6.00;;;;;;;;;;5097474;28;20400;-73
2022/11/21 10:56:32;;;;;;;5.63;5.10;;;;;;;;;;5108349;28;20472;-76
2022/11/21 10:59:21;;;;;;;5.63;5.07;;;;;;;;;;5094162;28;20074;-74
2022/11/21 11:02:13;;;;;;;5.80;5.25;;;;;;;;;;5093976;28;20435;-74
2022/11/21 11:05:17;;;;;;;4.60;4.18;;;;;;;;;;5107148;28;20038;-74
2022/11/21 11:08:03;;;;;;;7.90;6.45;;;;;;;;;;5107895;28;20028;-75
2022/11/21 11:11:11;;;;;;;6.65;4.70;;;;;;;;;;5109017;28;20036;-74
2022/11/21 11:13:59;;;;;;;8.63;6.45;;;;;;;;;;5106828;28;20347;-75
2022/11/21 11:16:45;;;;;;;5.43;4.80;;;;;;;;;;5100799;28;20111;-76
2022/11/21 11:19:31;;;;;;;7.80;6.97;;;;;;;;;;5109104;28;20028;-73
2022/11/21 11:22:27;;;;;;;6.75;5.53;;;;;;;;;;5107455;28;20035;-75
2022/11/21 11:25:13;;;;;;;8.43;5.82;;;;;;;;;;5104878;28;20351;-74
2022/11/21 11:28:04;;;;;;;8.80;7.70;;;;;;;;;;5108161;28;20023;-75
2022/11/21 11:30:50;;;;;;;7.57;4.32;;;;;;;;;;5109064;28;20115;-69
2022/11/21 11:33:37;;;;;;;9.07;7.32;;;;;;;;;;5107551;28;20028;-70
2022/11/21 11:36:36;;;;;;;6.03;4.80;;;;;;;;;;5106262;28;20051;-71
2022/11/21 11:39:21;;;;;;;12.43;8.88;;;;;;;;;;5107966;28;20023;-70
2022/11/21 11:48:54;;;;;;;6.05;5.43;;;;;;;;;;5025974;28;20119;-71
2022/11/21 11:51:43;;;;;;;5.80;5.20;;;;;;;;;;5108638;28;20058;-70
2022/11/21 11:54:31;;;;;;;9.60;7.40;;;;;;;;;;5106505;28;20420;-70
2022/11/21 11:57:17;;;;;;;9.40;7.20;;;;;;;;;;5107748;28;20364;-71
2022/11/21 12:00:03;;;;;;;9.10;7.38;;;;;;;;;;5107807;28;20474;-70
2022/11/21 12:02:48;;;;;;;5.45;4.85;;;;;;;;;;5107530;28;20032;-70
2022/11/21 12:05:36;;;;;;;6.65;4.63;;;;;;;;;;5107460;28;20106;-70
2022/11/21 12:08:41;;;;;;;5.85;4.70;;;;;;;;;;5107052;28;21121;-70
2022/11/21 12:12:05;;;;;;;5.68;4.30;;;;;;;;;;5104006;28;20035;-69
2022/11/21 12:18:15;;;;;;;4.00;3.60;;;;;;;;;;5107949;28;20011;-69
2022/11/21 12:21:14;;;;;;;5.60;4.32;;;;;;;;;;5107058;28;20392;-70
2022/11/21 12:24:02;;;;;;;4.68;3.85;;;;;;;;;;5106887;28;20023;-69
2022/11/21 12:26:59;;;;;;;3.78;3.10;;;;;;;;;;5106634;28;20096;-69
2022/11/21 12:29:57;;;;;;;4.00;3.60;;;;;;;;;;5106471;28;20020;-70
2022/11/21 12:32:43;;;;;;;3.83;3.10;;;;;;;;;;5107133;28;20016;-70
2022/11/21 12:35:40;;;;;;;3.60;2.58;;;;;;;;;;5105466;28;20030;-71
2022/11/21 12:38:45;;;;;;;2.67;2.17;;;;;;;;;;5093623;28;20052;-69
2022/11/21 12:44:50;;;;;;;2.08;1.88;;;;;;;;;;5105018;28;20051;-70
2022/11/21 12:54:29;;;;;;;3.25;2.45;;;;;;;;;;5105242;28;20095;-69
2022/11/21 12:57:16;;;;;;;2.90;2.42;;;;;;;;;;5105687;28;20047;-70
2022/11/21 13:00:13;;;;;;;3.50;2.50;;;;;;;;;;5100517;28;20039;-71
2022/11/21 13:03:02;;;;;;;2.78;2.38;;;;;;;;;;5100392;28;20035;-69
2022/11/21 13:05:50;;;;;;;4.68;2.65;;;;;;;;;;5104685;28;20103;-70
2022/11/21 13:08:36;;;;;;;3.80;3.20;;;;;;;;;;5091911;28;20107;-69
2022/11/21 13:11:59;;;;;;;5.28;3.53;;;;;;;;;;5091613;28;20108;-69
2022/11/21 13:14:47;;;;;;;3.63;2.70;;;;;;;;;;5104675;28;20028;-69
2022/11/21 13:17:34;;;;;;;3.88;3.00;;;;;;;;;;5104660;28;20035;-69
2022/11/21 13:20:29;;;;;;;2.65;2.40;;;;;;;;;;5105868;28;20038;-69
2022/11/21 13:23:33;;;;;;;22.20;14.32;;;;;;;;;;5103675;28;20035;-68
2022/11/21 13:26:27;;;;;;;17.88;11.43;;;;;;;;;;5105911;28;20044;-69
2022/11/21 13:29:13;;;;;;;7.38;4.28;;;;;;;;;;5106417;28;20122;-69
2022/11/21 13:32:18;;;;;;;5.78;4.60;;;;;;;;;;5106798;28;20027;-69
2022/11/21 13:35:13;;;;;;;4.70;4.30;;;;;;;;;;5104954;28;20185;-69
2022/11/21 13:38:05;;;;;;;3.97;3.58;;;;;;;;;;5105816;28;20475;-68
2022/11/21 13:44:14;;;;;;;3.80;3.42;;;;;;;;;;5105363;28;20046;-68
2022/11/21 13:47:19;;;;;;;4.45;3.70;;;;;;;;;;5105964;28;20027;-69
2022/11/21 13:50:16;;;;;;;3.58;3.20;;;;;;;;;;5095921;28;20338;-69
2022/11/21 13:53:18;;;;;;;4.07;3.28;;;;;;;;;;5104213;28;20028;-68
2022/11/21 13:56:16;;;;;;;3.90;2.95;;;;;;;;;;5110052;28;20376;-68
2022/11/21 13:59:02;;;;;;;4.35;2.95;;;;;;;;;;5107500;28;20542;-68
2022/11/21 14:01:50;;;;;;;5.18;2.90;;;;;;;;;;5094922;28;20089;-68
2022/11/21 14:04:36;;;;;;;3.88;2.70;;;;;;;;;;5089052;28;20028;-69
2022/11/21 14:07:22;;;;;;;2.83;2.55;;;;;;;;;;5108497;28;20437;-69
2022/11/21 14:10:24;;;;;;;5.32;2.60;;;;;;;;;;5095987;28;20337;-68
2022/11/21 14:13:16;;;;;;;2.83;2.30;;;;;;;;;;5109056;27;20154;-68
2022/11/21 14:16:40;;;;;;;2.75;2.42;;;;;;;;;;5098415;28;20074;-69
2022/11/21 14:19:26;;;;;;;4.72;2.50;;;;;;;;;;5010517;28;20505;-69
2022/11/21 14:22:16;;;;;;;4.50;2.08;;;;;;;;;;5086781;28;20042;-68
2022/11/21 14:25:05;;;;;;;5.93;3.88;;;;;;;;;;5098839;28;20058;-68
2022/11/21 14:27:53;;;;;;;3.05;2.40;;;;;;;;;;5089975;28;20027;-68
2022/11/21 14:30:40;;;;;;;3.70;2.47;;;;;;;;;;5092211;28;20043;-69
2022/11/21 14:33:32;;;;;;;3.80;2.70;;;;;;;;;;5102838;28;20023;-69
2022/11/21 14:36:18;;;;;;;3.70;2.10;;;;;;;;;;5089667;28;20077;-68
2022/11/21 14:39:08;;;;;;;4.60;3.08;;;;;;;;;;5106002;28;20778;-68
2022/11/21 14:41:55;;;;;;;3.92;2.95;;;;;;;;;;5104571;28;20443;-69
2022/11/21 14:44:41;;;;;;;2.58;2.30;;;;;;;;;;5103371;28;20443;-68
2022/11/21 14:47:26;;;;;;;6.05;2.88;;;;;;;;;;5103458;28;20024;-69
2022/11/21 14:50:20;;;;;;;5.47;2.90;;;;;;;;;;5104687;28;20055;-68
2022/11/21 14:53:10;;;;;;;3.97;3.00;;;;;;;;;;5103030;28;20019;-68
2022/11/21 14:55:56;;;;;;;7.50;3.00;;;;;;;;;;5105119;28;20538;-69
2022/11/21 14:58:41;;;;;;;3.03;2.60;;;;;;;;;;5104565;28;20093;-67
2022/11/21 15:01:28;;;;;;;3.28;2.85;;;;;;;;;;5104311;28;20107;-70
2022/11/21 15:04:14;;;;;;;3.75;2.67;;;;;;;;;;5101304;28;20027;-67
2022/11/21 15:07:00;;;;;;;4.82;3.03;;;;;;;;;;5086567;28;20027;-68
2022/11/21 15:09:46;;;;;;;6.10;4.50;;;;;;;;;;5103275;28;20058;-67
2022/11/21 15:12:35;;;;;;;6.60;3.70;;;;;;;;;;5106997;28;20023;-68
2022/11/21 15:15:27;;;;;;;5.28;3.92;;;;;;;;;;5103274;28;20023;-68
2022/11/21 15:18:15;;;;;;;4.80;3.80;;;;;;;;;;5103852;28;20030;-67
2022/11/21 15:21:01;;;;;;;5.03;3.03;;;;;;;;;;5098274;28;20136;-67
2022/11/21 15:23:47;;;;;;;4.38;3.22;;;;;;;;;;5103573;28;20019;-68
2022/11/21 15:26:34;;;;;;;5.93;3.55;;;;;;;;;;5103974;28;20062;-71
2022/11/21 15:29:21;;;;;;;4.45;3.47;;;;;;;;;;5102568;28;20867;-70
2022/11/21 15:32:07;;;;;;;4.30;3.38;;;;;;;;;;5091209;28;20040;-72
2022/11/21 15:34:52;;;;;;;4.97;3.28;;;;;;;;;;5087979;28;20023;-71
2022/11/21 15:37:46;;;;;;;6.18;3.63;;;;;;;;;;5105755;28;20048;-72
2022/11/21 15:40:32;;;;;;;3.70;3.05;;;;;;;;;;5105883;28;20651;-71
2022/11/21 15:43:31;;;;;;;6.28;3.90;;;;;;;;;;5089021;28;20051;-72
2022/11/21 15:46:23;;;;;;;5.95;4.60;;;;;;;;;;5107767;28;20352;-72
2022/11/21 15:49:09;;;;;;;5.65;4.47;;;;;;;;;;5116889;28;20100;-72
2022/11/21 15:51:55;;;;;;;6.78;3.70;;;;;;;;;;5104155;28;20025;-71
2022/11/21 15:54:40;;;;;;;5.85;3.90;;;;;;;;;;5097162;28;20020;-72
2022/11/21 15:57:26;;;;;;;8.90;5.15;;;;;;;;;;5122297;28;20023;-72
2022/11/21 16:00:12;;;;;;;19.52;7.35;;;;;;;;;;5120877;28;20030;-72
2022/11/21 16:02:57;;;;;;;28.77;13.13;;;;;;;;;;5108979;28;20045;-72
2022/11/21 16:05:43;;;;;;;5.20;3.75;;;;;;;;;;5121096;28;20020;-71
2022/11/21 16:08:29;;;;;;;6.63;3.60;;;;;;;;;;5121873;28;20011;-68
2022/11/21 16:11:24;;;;;;;4.88;3.65;;;;;;;;;;5117768;28;20023;-70
2022/11/21 16:14:14;;;;;;;5.43;3.58;;;;;;;;;;5115735;28;20019;-71
2022/11/21 16:17:00;;;;;;;5.85;3.65;;;;;;;;;;5114033;28;20084;-65
2022/11/21 16:19:45;;;;;;;5.55;3.40;;;;;;;;;;5112991;28;20019;-66
2022/11/21 16:22:31;;;;;;;4.03;3.13;;;;;;;;;;5113688;28;20402;-65
2022/11/21 16:25:16;;;;;;;3.10;2.70;;;;;;;;;;5113815;28;20503;-66
2022/11/21 16:28:02;;;;;;;5.70;3.33;;;;;;;;;;5113685;28;20451;-66
2022/11/21 16:30:48;;;;;;;3.75;3.00;;;;;;;;;;5114311;28;20024;-64
2022/11/21 16:33:34;;;;;;;4.15;3.35;;;;;;;;;;5114757;28;20333;-65
2022/11/21 16:36:26;;;;;;;4.47;3.58;;;;;;;;;;5113858;28;20367;-65
2022/11/21 16:39:12;;;;;;;4.35;3.58;;;;;;;;;;5113289;28;20030;-66
2022/11/21 16:41:58;;;;;;;5.40;3.72;;;;;;;;;;5122024;28;20023;-74
2022/11/21 16:44:44;;;;;;;5.75;3.83;;;;;;;;;;5119347;28;20356;-73
2022/11/21 16:47:29;;;;;;;4.57;3.90;;;;;;;;;;5121117;28;20024;-71
2022/11/21 16:50:15;;;;;;;5.95;3.05;;;;;;;;;;5119699;28;20043;-71
2022/11/21 16:53:01;;;;;;;4.85;3.22;;;;;;;;;;5115175;28;20076;-73
2022/11/21 16:55:46;;;;;;;5.75;3.60;;;;;;;;;;5115865;28;20023;-71
2022/11/21 16:58:32;;;;;;;4.30;3.40;;;;;;;;;;5115062;28;20016;-71
2022/11/21 17:01:18;;;;;;;5.95;4.00;;;;;;;;;;5115023;28;20020;-71
2022/11/21 17:04:04;;;;;;;5.43;3.70;;;;;;;;;;5115115;28;20030;-71
2022/11/21 17:06:50;;;;;;;6.30;3.60;;;;;;;;;;5115931;28;20073;-71
2022/11/21 17:09:35;;;;;;;3.90;3.00;;;;;;;;;;5116391;28;20016;-72